<?xml version="1.0" encoding="UTF-8" standalone="no" ?>
<gpx xmlns="http://www.topografix.com/GPX/1/1" xmlns:xsi="http://www.w3.org/2001/XMLSchema-instance" xsi:schemaLocation="http://www.topografix.com/GPX/1/1 http://www.topografix.com/GPX/1/1/gpx.xsd" version="1.1" creator="VisuGPX - https://www.visugpx.com">
  <metadata>
    <name>Rioumajou Péguère</name>
    <desc><![CDATA[Rando \"difficile\" Un peu de vrai montagne, de belles cascades à franchir. Après une petite marche d\'approche, un sentier bien raide pour aboutir sur un sentier de même altitude traversant plusieurs cascades. Franchissement de dalles assurées par des câbles. Nous avons préférer le sens horaire pour éviter le sentier raide à la descente après la fatigue  ]]></desc>
  </metadata>
  <trk>
    <name><![CDATA[2015-09-06 PEGUERE2]]></name>
    <trkseg>
      <trkpt lat="42.74016" lon="0.30774">
        <ele>1299.84</ele>
        <time>2015-09-06T07:38:43Z</time>
      </trkpt>
      <trkpt lat="42.7404" lon="0.30799">
        <ele>1373.86</ele>
        <time>2015-09-06T07:40:51Z</time>
      </trkpt>
      <trkpt lat="42.74023" lon="0.30806">
        <ele>1374.34</ele>
        <time>2015-09-06T07:41:07Z</time>
      </trkpt>
      <trkpt lat="42.74011" lon="0.30829">
        <ele>1374.34</ele>
        <time>2015-09-06T07:41:24Z</time>
      </trkpt>
      <trkpt lat="42.73997" lon="0.30859">
        <ele>1373.86</ele>
        <time>2015-09-06T07:41:42Z</time>
      </trkpt>
      <trkpt lat="42.73986" lon="0.30874">
        <ele>1373.86</ele>
        <time>2015-09-06T07:41:55Z</time>
      </trkpt>
      <trkpt lat="42.73912" lon="0.30913">
        <ele>1375.3</ele>
        <time>2015-09-06T07:43:06Z</time>
      </trkpt>
      <trkpt lat="42.73894" lon="0.30931">
        <ele>1376.26</ele>
        <time>2015-09-06T07:43:21Z</time>
      </trkpt>
      <trkpt lat="42.73869" lon="0.30948">
        <ele>1380.11</ele>
        <time>2015-09-06T07:43:55Z</time>
      </trkpt>
      <trkpt lat="42.73755" lon="0.30972">
        <ele>1394.53</ele>
        <time>2015-09-06T07:46:08Z</time>
      </trkpt>
      <trkpt lat="42.73726" lon="0.30988">
        <ele>1397.89</ele>
        <time>2015-09-06T07:46:49Z</time>
      </trkpt>
      <trkpt lat="42.73614" lon="0.31061">
        <ele>1413.28</ele>
        <time>2015-09-06T07:49:10Z</time>
      </trkpt>
      <trkpt lat="42.73466" lon="0.312">
        <ele>1441.63</ele>
        <time>2015-09-06T07:53:04Z</time>
      </trkpt>
      <trkpt lat="42.73467" lon="0.31234">
        <ele>1445</ele>
        <time>2015-09-06T07:53:33Z</time>
      </trkpt>
      <trkpt lat="42.73472" lon="0.313">
        <ele>1450.77</ele>
        <time>2015-09-06T07:54:23Z</time>
      </trkpt>
      <trkpt lat="42.73456" lon="0.31409">
        <ele>1457.5</ele>
        <time>2015-09-06T07:55:48Z</time>
      </trkpt>
      <trkpt lat="42.73444" lon="0.31442">
        <ele>1459.9</ele>
        <time>2015-09-06T07:56:16Z</time>
      </trkpt>
      <trkpt lat="42.73433" lon="0.31492">
        <ele>1462.3</ele>
        <time>2015-09-06T07:56:51Z</time>
      </trkpt>
      <trkpt lat="42.73405" lon="0.31564">
        <ele>1467.59</ele>
        <time>2015-09-06T07:57:48Z</time>
      </trkpt>
      <trkpt lat="42.73402" lon="0.31595">
        <ele>1469.03</ele>
        <time>2015-09-06T07:58:09Z</time>
      </trkpt>
      <trkpt lat="42.73394" lon="0.31645">
        <ele>1471.44</ele>
        <time>2015-09-06T07:58:45Z</time>
      </trkpt>
      <trkpt lat="42.73378" lon="0.31675">
        <ele>1473.36</ele>
        <time>2015-09-06T07:59:10Z</time>
      </trkpt>
      <trkpt lat="42.73376" lon="0.31692">
        <ele>1474.32</ele>
        <time>2015-09-06T07:59:24Z</time>
      </trkpt>
      <trkpt lat="42.73373" lon="0.31718">
        <ele>1475.76</ele>
        <time>2015-09-06T07:59:41Z</time>
      </trkpt>
      <trkpt lat="42.7337" lon="0.31733">
        <ele>1476.24</ele>
        <time>2015-09-06T07:59:53Z</time>
      </trkpt>
      <trkpt lat="42.73364" lon="0.31784">
        <ele>1478.16</ele>
        <time>2015-09-06T08:00:24Z</time>
      </trkpt>
      <trkpt lat="42.73366" lon="0.31814">
        <ele>1479.13</ele>
        <time>2015-09-06T08:00:44Z</time>
      </trkpt>
      <trkpt lat="42.73364" lon="0.31834">
        <ele>1479.13</ele>
        <time>2015-09-06T08:00:58Z</time>
      </trkpt>
      <trkpt lat="42.73361" lon="0.31847">
        <ele>1479.13</ele>
        <time>2015-09-06T08:01:07Z</time>
      </trkpt>
      <trkpt lat="42.73358" lon="0.31861">
        <ele>1479.61</ele>
        <time>2015-09-06T08:01:17Z</time>
      </trkpt>
      <trkpt lat="42.73337" lon="0.31897">
        <ele>1481.05</ele>
        <time>2015-09-06T08:01:44Z</time>
      </trkpt>
      <trkpt lat="42.73315" lon="0.31951">
        <ele>1483.45</ele>
        <time>2015-09-06T08:02:26Z</time>
      </trkpt>
      <trkpt lat="42.73308" lon="0.31971">
        <ele>1483.93</ele>
        <time>2015-09-06T08:02:40Z</time>
      </trkpt>
      <trkpt lat="42.73299" lon="0.31992">
        <ele>1485.37</ele>
        <time>2015-09-06T08:02:55Z</time>
      </trkpt>
      <trkpt lat="42.73298" lon="0.32007">
        <ele>1485.85</ele>
        <time>2015-09-06T08:03:06Z</time>
      </trkpt>
      <trkpt lat="42.73296" lon="0.32043">
        <ele>1486.34</ele>
        <time>2015-09-06T08:03:29Z</time>
      </trkpt>
      <trkpt lat="42.73274" lon="0.3208">
        <ele>1488.74</ele>
        <time>2015-09-06T08:04:03Z</time>
      </trkpt>
      <trkpt lat="42.73263" lon="0.32103">
        <ele>1492.58</ele>
        <time>2015-09-06T08:04:29Z</time>
      </trkpt>
      <trkpt lat="42.73257" lon="0.32131">
        <ele>1495.47</ele>
        <time>2015-09-06T08:04:57Z</time>
      </trkpt>
      <trkpt lat="42.7323" lon="0.32196">
        <ele>1503.16</ele>
        <time>2015-09-06T08:06:08Z</time>
      </trkpt>
      <trkpt lat="42.73206" lon="0.32209">
        <ele>1505.56</ele>
        <time>2015-09-06T08:06:33Z</time>
      </trkpt>
      <trkpt lat="42.73191" lon="0.3221">
        <ele>1507.48</ele>
        <time>2015-09-06T08:06:48Z</time>
      </trkpt>
      <trkpt lat="42.73179" lon="0.32211">
        <ele>1507.97</ele>
        <time>2015-09-06T08:06:58Z</time>
      </trkpt>
      <trkpt lat="42.73164" lon="0.32213">
        <ele>1509.41</ele>
        <time>2015-09-06T08:07:17Z</time>
      </trkpt>
      <trkpt lat="42.73144" lon="0.32236">
        <ele>1511.81</ele>
        <time>2015-09-06T08:07:43Z</time>
      </trkpt>
      <trkpt lat="42.73134" lon="0.32241">
        <ele>1512.29</ele>
        <time>2015-09-06T08:07:53Z</time>
      </trkpt>
      <trkpt lat="42.73111" lon="0.32257">
        <ele>1515.18</ele>
        <time>2015-09-06T08:08:18Z</time>
      </trkpt>
      <trkpt lat="42.73102" lon="0.32262">
        <ele>1516.14</ele>
        <time>2015-09-06T08:08:29Z</time>
      </trkpt>
      <trkpt lat="42.73089" lon="0.32298">
        <ele>1515.18</ele>
        <time>2015-09-06T08:09:28Z</time>
      </trkpt>
      <trkpt lat="42.73134" lon="0.32351">
        <ele>1539.21</ele>
        <time>2015-09-06T08:18:23Z</time>
      </trkpt>
      <trkpt lat="42.73135" lon="0.32363">
        <ele>1541.13</ele>
        <time>2015-09-06T08:18:38Z</time>
      </trkpt>
      <trkpt lat="42.73142" lon="0.32386">
        <ele>1544.98</ele>
        <time>2015-09-06T08:19:14Z</time>
      </trkpt>
      <trkpt lat="42.73141" lon="0.32409">
        <ele>1548.34</ele>
        <time>2015-09-06T08:19:37Z</time>
      </trkpt>
      <trkpt lat="42.73148" lon="0.32462">
        <ele>1556.03</ele>
        <time>2015-09-06T08:20:41Z</time>
      </trkpt>
      <trkpt lat="42.73149" lon="0.32491">
        <ele>1561.8</ele>
        <time>2015-09-06T08:21:36Z</time>
      </trkpt>
      <trkpt lat="42.73127" lon="0.32539">
        <ele>1571.89</ele>
        <time>2015-09-06T08:22:53Z</time>
      </trkpt>
      <trkpt lat="42.73139" lon="0.32565">
        <ele>1578.62</ele>
        <time>2015-09-06T08:24:02Z</time>
      </trkpt>
      <trkpt lat="42.73128" lon="0.32603">
        <ele>1586.31</ele>
        <time>2015-09-06T08:25:19Z</time>
      </trkpt>
      <trkpt lat="42.73146" lon="0.32641">
        <ele>1595.93</ele>
        <time>2015-09-06T08:26:37Z</time>
      </trkpt>
      <trkpt lat="42.72976" lon="0.3367">
        <ele>1995.83</ele>
        <time>2015-09-06T09:46:30Z</time>
      </trkpt>
      <trkpt lat="42.7297" lon="0.33711">
        <ele>2011.22</ele>
        <time>2015-09-06T09:48:42Z</time>
      </trkpt>
      <trkpt lat="42.7294" lon="0.33721">
        <ele>2024.19</ele>
        <time>2015-09-06T09:50:52Z</time>
      </trkpt>
      <trkpt lat="42.72932" lon="0.33729">
        <ele>2026.12</ele>
        <time>2015-09-06T09:51:06Z</time>
      </trkpt>
      <trkpt lat="42.72924" lon="0.33738">
        <ele>2027.56</ele>
        <time>2015-09-06T09:51:20Z</time>
      </trkpt>
      <trkpt lat="42.72914" lon="0.33748">
        <ele>2029.48</ele>
        <time>2015-09-06T09:51:46Z</time>
      </trkpt>
      <trkpt lat="42.72911" lon="0.33764">
        <ele>2032.36</ele>
        <time>2015-09-06T09:52:07Z</time>
      </trkpt>
      <trkpt lat="42.72913" lon="0.33767">
        <ele>2022.75</ele>
        <time>2015-09-06T10:25:18Z</time>
      </trkpt>
      <trkpt lat="42.72917" lon="0.33731">
        <ele>2019.39</ele>
        <time>2015-09-06T10:26:23Z</time>
      </trkpt>
      <trkpt lat="42.72916" lon="0.33723">
        <ele>2020.35</ele>
        <time>2015-09-06T10:26:58Z</time>
      </trkpt>
      <trkpt lat="42.7291" lon="0.33735">
        <ele>2020.35</ele>
        <time>2015-09-06T10:27:20Z</time>
      </trkpt>
      <trkpt lat="42.72909" lon="0.33747">
        <ele>2020.35</ele>
        <time>2015-09-06T10:27:33Z</time>
      </trkpt>
      <trkpt lat="42.72908" lon="0.33763">
        <ele>2021.31</ele>
        <time>2015-09-06T10:27:45Z</time>
      </trkpt>
      <trkpt lat="42.72906" lon="0.33775">
        <ele>2022.75</ele>
        <time>2015-09-06T10:28:46Z</time>
      </trkpt>
      <trkpt lat="42.729" lon="0.33779">
        <ele>2023.23</ele>
        <time>2015-09-06T10:29:19Z</time>
      </trkpt>
      <trkpt lat="42.72894" lon="0.33788">
        <ele>2022.75</ele>
        <time>2015-09-06T10:29:29Z</time>
      </trkpt>
      <trkpt lat="42.72886" lon="0.33799">
        <ele>2023.23</ele>
        <time>2015-09-06T10:29:39Z</time>
      </trkpt>
      <trkpt lat="42.7288" lon="0.3381">
        <ele>2023.71</ele>
        <time>2015-09-06T10:29:50Z</time>
      </trkpt>
      <trkpt lat="42.72875" lon="0.3382">
        <ele>2024.19</ele>
        <time>2015-09-06T10:30:10Z</time>
      </trkpt>
      <trkpt lat="42.72871" lon="0.33827">
        <ele>2024.19</ele>
        <time>2015-09-06T10:30:26Z</time>
      </trkpt>
      <trkpt lat="42.72864" lon="0.33831">
        <ele>2024.67</ele>
        <time>2015-09-06T10:30:39Z</time>
      </trkpt>
      <trkpt lat="42.72857" lon="0.33837">
        <ele>2025.15</ele>
        <time>2015-09-06T10:30:51Z</time>
      </trkpt>
      <trkpt lat="42.72853" lon="0.33848">
        <ele>2026.12</ele>
        <time>2015-09-06T10:31:09Z</time>
      </trkpt>
      <trkpt lat="42.7285" lon="0.33858">
        <ele>2026.6</ele>
        <time>2015-09-06T10:31:41Z</time>
      </trkpt>
      <trkpt lat="42.72845" lon="0.33868">
        <ele>2026.6</ele>
        <time>2015-09-06T10:32:07Z</time>
      </trkpt>
      <trkpt lat="42.72843" lon="0.33876">
        <ele>2029</ele>
        <time>2015-09-06T10:32:26Z</time>
      </trkpt>
      <trkpt lat="42.72836" lon="0.33881">
        <ele>2031.4</ele>
        <time>2015-09-06T10:32:44Z</time>
      </trkpt>
      <trkpt lat="42.72826" lon="0.33885">
        <ele>2031.88</ele>
        <time>2015-09-06T10:33:00Z</time>
      </trkpt>
      <trkpt lat="42.72816" lon="0.33892">
        <ele>2032.36</ele>
        <time>2015-09-06T10:33:17Z</time>
      </trkpt>
      <trkpt lat="42.72809" lon="0.33902">
        <ele>2033.81</ele>
        <time>2015-09-06T10:33:30Z</time>
      </trkpt>
      <trkpt lat="42.72802" lon="0.33915">
        <ele>2035.25</ele>
        <time>2015-09-06T10:33:48Z</time>
      </trkpt>
      <trkpt lat="42.72797" lon="0.33928">
        <ele>2037.65</ele>
        <time>2015-09-06T10:34:02Z</time>
      </trkpt>
      <trkpt lat="42.72791" lon="0.33941">
        <ele>2039.57</ele>
        <time>2015-09-06T10:34:18Z</time>
      </trkpt>
      <trkpt lat="42.72786" lon="0.33951">
        <ele>2041.5</ele>
        <time>2015-09-06T10:34:36Z</time>
      </trkpt>
      <trkpt lat="42.7278" lon="0.33961">
        <ele>2043.42</ele>
        <time>2015-09-06T10:34:58Z</time>
      </trkpt>
      <trkpt lat="42.72773" lon="0.33971">
        <ele>2045.34</ele>
        <time>2015-09-06T10:35:14Z</time>
      </trkpt>
      <trkpt lat="42.72767" lon="0.3398">
        <ele>2048.23</ele>
        <time>2015-09-06T10:35:32Z</time>
      </trkpt>
      <trkpt lat="42.7276" lon="0.33987">
        <ele>2050.15</ele>
        <time>2015-09-06T10:35:50Z</time>
      </trkpt>
      <trkpt lat="42.72752" lon="0.33996">
        <ele>2052.55</ele>
        <time>2015-09-06T10:36:20Z</time>
      </trkpt>
      <trkpt lat="42.72745" lon="0.33999">
        <ele>2054.47</ele>
        <time>2015-09-06T10:36:42Z</time>
      </trkpt>
      <trkpt lat="42.72739" lon="0.34008">
        <ele>2057.36</ele>
        <time>2015-09-06T10:37:02Z</time>
      </trkpt>
      <trkpt lat="42.72734" lon="0.34018">
        <ele>2059.76</ele>
        <time>2015-09-06T10:37:21Z</time>
      </trkpt>
      <trkpt lat="42.72726" lon="0.34024">
        <ele>2061.68</ele>
        <time>2015-09-06T10:37:43Z</time>
      </trkpt>
      <trkpt lat="42.72719" lon="0.34033">
        <ele>2064.57</ele>
        <time>2015-09-06T10:38:03Z</time>
      </trkpt>
      <trkpt lat="42.72711" lon="0.34042">
        <ele>2066.01</ele>
        <time>2015-09-06T10:38:20Z</time>
      </trkpt>
      <trkpt lat="42.72704" lon="0.3405">
        <ele>2067.93</ele>
        <time>2015-09-06T10:38:37Z</time>
      </trkpt>
      <trkpt lat="42.72699" lon="0.34058">
        <ele>2069.86</ele>
        <time>2015-09-06T10:39:02Z</time>
      </trkpt>
      <trkpt lat="42.72696" lon="0.3407">
        <ele>2071.3</ele>
        <time>2015-09-06T10:39:21Z</time>
      </trkpt>
      <trkpt lat="42.72693" lon="0.34079">
        <ele>2074.18</ele>
        <time>2015-09-06T10:39:49Z</time>
      </trkpt>
      <trkpt lat="42.72691" lon="0.34091">
        <ele>2077.07</ele>
        <time>2015-09-06T10:40:09Z</time>
      </trkpt>
      <trkpt lat="42.72685" lon="0.34103">
        <ele>2078.99</ele>
        <time>2015-09-06T10:40:34Z</time>
      </trkpt>
      <trkpt lat="42.7268" lon="0.34113">
        <ele>2081.87</ele>
        <time>2015-09-06T10:40:57Z</time>
      </trkpt>
      <trkpt lat="42.72676" lon="0.34123">
        <ele>2083.79</ele>
        <time>2015-09-06T10:41:16Z</time>
      </trkpt>
      <trkpt lat="42.72672" lon="0.34133">
        <ele>2086.68</ele>
        <time>2015-09-06T10:41:46Z</time>
      </trkpt>
      <trkpt lat="42.72667" lon="0.34142">
        <ele>2087.64</ele>
        <time>2015-09-06T10:42:03Z</time>
      </trkpt>
      <trkpt lat="42.72659" lon="0.3415">
        <ele>2090.52</ele>
        <time>2015-09-06T10:42:30Z</time>
      </trkpt>
      <trkpt lat="42.72653" lon="0.34159">
        <ele>2093.41</ele>
        <time>2015-09-06T10:42:56Z</time>
      </trkpt>
      <trkpt lat="42.72646" lon="0.34167">
        <ele>2096.29</ele>
        <time>2015-09-06T10:43:20Z</time>
      </trkpt>
      <trkpt lat="42.7264" lon="0.34172">
        <ele>2098.21</ele>
        <time>2015-09-06T10:43:59Z</time>
      </trkpt>
      <trkpt lat="42.72633" lon="0.34178">
        <ele>2098.7</ele>
        <time>2015-09-06T10:44:26Z</time>
      </trkpt>
      <trkpt lat="42.72624" lon="0.34192">
        <ele>2101.1</ele>
        <time>2015-09-06T10:45:31Z</time>
      </trkpt>
      <trkpt lat="42.72617" lon="0.342">
        <ele>2102.54</ele>
        <time>2015-09-06T10:46:10Z</time>
      </trkpt>
      <trkpt lat="42.7261" lon="0.34204">
        <ele>2103.02</ele>
        <time>2015-09-06T10:46:29Z</time>
      </trkpt>
      <trkpt lat="42.72602" lon="0.34211">
        <ele>2103.02</ele>
        <time>2015-09-06T10:46:47Z</time>
      </trkpt>
      <trkpt lat="42.72593" lon="0.34217">
        <ele>2103.98</ele>
        <time>2015-09-06T10:47:19Z</time>
      </trkpt>
      <trkpt lat="42.72584" lon="0.34218">
        <ele>2105.42</ele>
        <time>2015-09-06T10:47:31Z</time>
      </trkpt>
      <trkpt lat="42.7259" lon="0.34201">
        <ele>2104.46</ele>
        <time>2015-09-06T10:47:58Z</time>
      </trkpt>
      <trkpt lat="42.72603" lon="0.34179">
        <ele>2102.54</ele>
        <time>2015-09-06T10:48:22Z</time>
      </trkpt>
      <trkpt lat="42.72585" lon="0.34154">
        <ele>2100.14</ele>
        <time>2015-09-06T10:48:50Z</time>
      </trkpt>
      <trkpt lat="42.72576" lon="0.34149">
        <ele>2098.7</ele>
        <time>2015-09-06T10:49:03Z</time>
      </trkpt>
      <trkpt lat="42.72565" lon="0.34147">
        <ele>2098.21</ele>
        <time>2015-09-06T10:49:18Z</time>
      </trkpt>
      <trkpt lat="42.72555" lon="0.34151">
        <ele>2097.25</ele>
        <time>2015-09-06T10:49:32Z</time>
      </trkpt>
      <trkpt lat="42.7255" lon="0.34158">
        <ele>2101.1</ele>
        <time>2015-09-06T10:49:52Z</time>
      </trkpt>
      <trkpt lat="42.72543" lon="0.34168">
        <ele>2103.02</ele>
        <time>2015-09-06T10:50:08Z</time>
      </trkpt>
      <trkpt lat="42.72535" lon="0.34176">
        <ele>2105.91</ele>
        <time>2015-09-06T10:50:35Z</time>
      </trkpt>
      <trkpt lat="42.72532" lon="0.34185">
        <ele>2106.39</ele>
        <time>2015-09-06T10:50:52Z</time>
      </trkpt>
      <trkpt lat="42.72522" lon="0.34188">
        <ele>2107.83</ele>
        <time>2015-09-06T10:51:37Z</time>
      </trkpt>
      <trkpt lat="42.7251" lon="0.34166">
        <ele>2105.42</ele>
        <time>2015-09-06T10:52:58Z</time>
      </trkpt>
      <trkpt lat="42.72498" lon="0.34138">
        <ele>2102.06</ele>
        <time>2015-09-06T10:54:53Z</time>
      </trkpt>
      <trkpt lat="42.72497" lon="0.34099">
        <ele>2100.14</ele>
        <time>2015-09-06T10:56:24Z</time>
      </trkpt>
      <trkpt lat="42.72486" lon="0.34069">
        <ele>2105.42</ele>
        <time>2015-09-06T10:57:11Z</time>
      </trkpt>
      <trkpt lat="42.72472" lon="0.34041">
        <ele>2107.83</ele>
        <time>2015-09-06T10:57:49Z</time>
      </trkpt>
      <trkpt lat="42.7245" lon="0.33997">
        <ele>2119.36</ele>
        <time>2015-09-06T11:01:36Z</time>
      </trkpt>
      <trkpt lat="42.72438" lon="0.3397">
        <ele>2124.65</ele>
        <time>2015-09-06T11:02:23Z</time>
      </trkpt>
      <trkpt lat="42.72425" lon="0.3396">
        <ele>2127.05</ele>
        <time>2015-09-06T11:02:49Z</time>
      </trkpt>
      <trkpt lat="42.72413" lon="0.33942">
        <ele>2129.46</ele>
        <time>2015-09-06T11:04:09Z</time>
      </trkpt>
      <trkpt lat="42.72402" lon="0.33953">
        <ele>2134.74</ele>
        <time>2015-09-06T11:04:56Z</time>
      </trkpt>
      <trkpt lat="42.72392" lon="0.33953">
        <ele>2137.63</ele>
        <time>2015-09-06T11:05:30Z</time>
      </trkpt>
      <trkpt lat="42.72382" lon="0.33955">
        <ele>2140.99</ele>
        <time>2015-09-06T11:06:24Z</time>
      </trkpt>
      <trkpt lat="42.72362" lon="0.33935">
        <ele>2143.4</ele>
        <time>2015-09-06T11:08:05Z</time>
      </trkpt>
      <trkpt lat="42.7235" lon="0.33915">
        <ele>2147.24</ele>
        <time>2015-09-06T11:08:43Z</time>
      </trkpt>
      <trkpt lat="42.72333" lon="0.3391">
        <ele>2149.16</ele>
        <time>2015-09-06T11:09:08Z</time>
      </trkpt>
      <trkpt lat="42.72322" lon="0.33905">
        <ele>2150.13</ele>
        <time>2015-09-06T11:09:42Z</time>
      </trkpt>
      <trkpt lat="42.72317" lon="0.33894">
        <ele>2150.61</ele>
        <time>2015-09-06T11:10:10Z</time>
      </trkpt>
      <trkpt lat="42.72297" lon="0.33862">
        <ele>2151.09</ele>
        <time>2015-09-06T11:11:08Z</time>
      </trkpt>
      <trkpt lat="42.72292" lon="0.33844">
        <ele>2153.49</ele>
        <time>2015-09-06T11:12:00Z</time>
      </trkpt>
      <trkpt lat="42.72291" lon="0.33818">
        <ele>2156.86</ele>
        <time>2015-09-06T11:12:55Z</time>
      </trkpt>
      <trkpt lat="42.72293" lon="0.33799">
        <ele>2158.3</ele>
        <time>2015-09-06T11:13:16Z</time>
      </trkpt>
      <trkpt lat="42.72293" lon="0.33763">
        <ele>2173.2</ele>
        <time>2015-09-06T11:29:41Z</time>
      </trkpt>
      <trkpt lat="42.72286" lon="0.33742">
        <ele>2180.89</ele>
        <time>2015-09-06T11:37:35Z</time>
      </trkpt>
      <trkpt lat="42.72285" lon="0.3373">
        <ele>2183.77</ele>
        <time>2015-09-06T11:37:48Z</time>
      </trkpt>
      <trkpt lat="42.72276" lon="0.33734">
        <ele>2184.25</ele>
        <time>2015-09-06T11:41:11Z</time>
      </trkpt>
      <trkpt lat="42.72268" lon="0.33744">
        <ele>2182.81</ele>
        <time>2015-09-06T11:41:29Z</time>
      </trkpt>
      <trkpt lat="42.7226" lon="0.33752">
        <ele>2181.85</ele>
        <time>2015-09-06T11:41:39Z</time>
      </trkpt>
      <trkpt lat="42.72252" lon="0.33753">
        <ele>2181.85</ele>
        <time>2015-09-06T11:41:49Z</time>
      </trkpt>
      <trkpt lat="42.72242" lon="0.33752">
        <ele>2181.85</ele>
        <time>2015-09-06T11:41:59Z</time>
      </trkpt>
      <trkpt lat="42.72232" lon="0.33751">
        <ele>2181.85</ele>
        <time>2015-09-06T11:42:10Z</time>
      </trkpt>
      <trkpt lat="42.72222" lon="0.33749">
        <ele>2181.37</ele>
        <time>2015-09-06T11:42:22Z</time>
      </trkpt>
      <trkpt lat="42.72212" lon="0.33749">
        <ele>2180.89</ele>
        <time>2015-09-06T11:42:32Z</time>
      </trkpt>
      <trkpt lat="42.72203" lon="0.3375">
        <ele>2180.41</ele>
        <time>2015-09-06T11:42:42Z</time>
      </trkpt>
      <trkpt lat="42.7219" lon="0.33733">
        <ele>2181.37</ele>
        <time>2015-09-06T11:43:26Z</time>
      </trkpt>
      <trkpt lat="42.72185" lon="0.33724">
        <ele>2181.85</ele>
        <time>2015-09-06T11:43:40Z</time>
      </trkpt>
      <trkpt lat="42.72181" lon="0.33706">
        <ele>2182.81</ele>
        <time>2015-09-06T11:45:22Z</time>
      </trkpt>
      <trkpt lat="42.72177" lon="0.33695">
        <ele>2183.29</ele>
        <time>2015-09-06T11:45:39Z</time>
      </trkpt>
      <trkpt lat="42.72169" lon="0.33684">
        <ele>2180.89</ele>
        <time>2015-09-06T11:45:54Z</time>
      </trkpt>
      <trkpt lat="42.7216" lon="0.33677">
        <ele>2178.48</ele>
        <time>2015-09-06T11:46:10Z</time>
      </trkpt>
      <trkpt lat="42.72167" lon="0.33673">
        <ele>2175.6</ele>
        <time>2015-09-06T11:46:26Z</time>
      </trkpt>
      <trkpt lat="42.72165" lon="0.33667">
        <ele>2173.2</ele>
        <time>2015-09-06T11:46:43Z</time>
      </trkpt>
      <trkpt lat="42.72172" lon="0.33657">
        <ele>2169.35</ele>
        <time>2015-09-06T11:47:05Z</time>
      </trkpt>
      <trkpt lat="42.72181" lon="0.33651">
        <ele>2166.95</ele>
        <time>2015-09-06T11:47:18Z</time>
      </trkpt>
      <trkpt lat="42.72164" lon="0.33632">
        <ele>2156.37</ele>
        <time>2015-09-06T11:48:21Z</time>
      </trkpt>
      <trkpt lat="42.72144" lon="0.33617">
        <ele>2145.8</ele>
        <time>2015-09-06T11:49:23Z</time>
      </trkpt>
      <trkpt lat="42.72144" lon="0.33599">
        <ele>2140.51</ele>
        <time>2015-09-06T11:49:59Z</time>
      </trkpt>
      <trkpt lat="42.72127" lon="0.336">
        <ele>2135.71</ele>
        <time>2015-09-06T11:50:26Z</time>
      </trkpt>
      <trkpt lat="42.72133" lon="0.33577">
        <ele>2128.5</ele>
        <time>2015-09-06T11:51:25Z</time>
      </trkpt>
      <trkpt lat="42.72138" lon="0.33564">
        <ele>2124.65</ele>
        <time>2015-09-06T11:51:54Z</time>
      </trkpt>
      <trkpt lat="42.7213" lon="0.33552">
        <ele>2118.4</ele>
        <time>2015-09-06T11:52:37Z</time>
      </trkpt>
      <trkpt lat="42.72134" lon="0.33535">
        <ele>2112.15</ele>
        <time>2015-09-06T11:53:22Z</time>
      </trkpt>
      <trkpt lat="42.72138" lon="0.33515">
        <ele>2106.87</ele>
        <time>2015-09-06T11:54:02Z</time>
      </trkpt>
      <trkpt lat="42.72132" lon="0.33505">
        <ele>2103.98</ele>
        <time>2015-09-06T11:54:23Z</time>
      </trkpt>
      <trkpt lat="42.7214" lon="0.33487">
        <ele>2100.14</ele>
        <time>2015-09-06T11:54:43Z</time>
      </trkpt>
      <trkpt lat="42.72155" lon="0.33453">
        <ele>2089.56</ele>
        <time>2015-09-06T11:56:06Z</time>
      </trkpt>
      <trkpt lat="42.72167" lon="0.33422">
        <ele>2079.47</ele>
        <time>2015-09-06T11:57:17Z</time>
      </trkpt>
      <trkpt lat="42.72205" lon="0.33413">
        <ele>2062.65</ele>
        <time>2015-09-06T11:59:46Z</time>
      </trkpt>
      <trkpt lat="42.72208" lon="0.33395">
        <ele>2054.47</ele>
        <time>2015-09-06T12:01:02Z</time>
      </trkpt>
      <trkpt lat="42.72199" lon="0.33379">
        <ele>2050.63</ele>
        <time>2015-09-06T12:01:28Z</time>
      </trkpt>
      <trkpt lat="42.72208" lon="0.33375">
        <ele>2047.26</ele>
        <time>2015-09-06T12:01:54Z</time>
      </trkpt>
      <trkpt lat="42.72198" lon="0.33359">
        <ele>2044.86</ele>
        <time>2015-09-06T12:02:19Z</time>
      </trkpt>
      <trkpt lat="42.72186" lon="0.33355">
        <ele>2044.86</ele>
        <time>2015-09-06T12:02:35Z</time>
      </trkpt>
      <trkpt lat="42.72171" lon="0.33344">
        <ele>2038.13</ele>
        <time>2015-09-06T12:03:54Z</time>
      </trkpt>
      <trkpt lat="42.72155" lon="0.33291">
        <ele>2003.04</ele>
        <time>2015-09-06T12:16:00Z</time>
      </trkpt>
      <trkpt lat="42.72138" lon="0.33297">
        <ele>2005.93</ele>
        <time>2015-09-06T12:18:07Z</time>
      </trkpt>
      <trkpt lat="42.72134" lon="0.33284">
        <ele>2008.81</ele>
        <time>2015-09-06T12:18:21Z</time>
      </trkpt>
      <trkpt lat="42.72127" lon="0.33268">
        <ele>2009.77</ele>
        <time>2015-09-06T12:18:42Z</time>
      </trkpt>
      <trkpt lat="42.72123" lon="0.33251">
        <ele>2011.22</ele>
        <time>2015-09-06T12:19:03Z</time>
      </trkpt>
      <trkpt lat="42.72123" lon="0.33233">
        <ele>2013.14</ele>
        <time>2015-09-06T12:19:54Z</time>
      </trkpt>
      <trkpt lat="42.72123" lon="0.33218">
        <ele>2014.58</ele>
        <time>2015-09-06T12:20:08Z</time>
      </trkpt>
      <trkpt lat="42.72125" lon="0.33204">
        <ele>2015.54</ele>
        <time>2015-09-06T12:20:22Z</time>
      </trkpt>
      <trkpt lat="42.72129" lon="0.33192">
        <ele>2016.5</ele>
        <time>2015-09-06T12:20:35Z</time>
      </trkpt>
      <trkpt lat="42.72131" lon="0.33178">
        <ele>2017.94</ele>
        <time>2015-09-06T12:20:51Z</time>
      </trkpt>
      <trkpt lat="42.72133" lon="0.33165">
        <ele>2018.43</ele>
        <time>2015-09-06T12:21:04Z</time>
      </trkpt>
      <trkpt lat="42.72132" lon="0.33149">
        <ele>2019.39</ele>
        <time>2015-09-06T12:21:23Z</time>
      </trkpt>
      <trkpt lat="42.72139" lon="0.33136">
        <ele>2021.31</ele>
        <time>2015-09-06T12:22:01Z</time>
      </trkpt>
      <trkpt lat="42.72141" lon="0.33121">
        <ele>2022.75</ele>
        <time>2015-09-06T12:22:17Z</time>
      </trkpt>
      <trkpt lat="42.72148" lon="0.33104">
        <ele>2024.67</ele>
        <time>2015-09-06T12:22:36Z</time>
      </trkpt>
      <trkpt lat="42.72163" lon="0.33091">
        <ele>2027.08</ele>
        <time>2015-09-06T12:25:03Z</time>
      </trkpt>
      <trkpt lat="42.72176" lon="0.33072">
        <ele>2029.96</ele>
        <time>2015-09-06T12:25:28Z</time>
      </trkpt>
      <trkpt lat="42.72186" lon="0.33043">
        <ele>2033.81</ele>
        <time>2015-09-06T12:26:22Z</time>
      </trkpt>
      <trkpt lat="42.72196" lon="0.33012">
        <ele>2036.69</ele>
        <time>2015-09-06T12:26:58Z</time>
      </trkpt>
      <trkpt lat="42.72204" lon="0.33">
        <ele>2037.17</ele>
        <time>2015-09-06T12:27:13Z</time>
      </trkpt>
      <trkpt lat="42.72213" lon="0.32989">
        <ele>2036.21</ele>
        <time>2015-09-06T12:27:32Z</time>
      </trkpt>
      <trkpt lat="42.72227" lon="0.32963">
        <ele>2031.4</ele>
        <time>2015-09-06T12:28:05Z</time>
      </trkpt>
      <trkpt lat="42.72258" lon="0.32922">
        <ele>2025.64</ele>
        <time>2015-09-06T12:29:00Z</time>
      </trkpt>
      <trkpt lat="42.72299" lon="0.32865">
        <ele>2016.5</ele>
        <time>2015-09-06T12:30:30Z</time>
      </trkpt>
      <trkpt lat="42.72327" lon="0.32823">
        <ele>2009.77</ele>
        <time>2015-09-06T12:31:38Z</time>
      </trkpt>
      <trkpt lat="42.72352" lon="0.32764">
        <ele>2010.25</ele>
        <time>2015-09-06T12:33:24Z</time>
      </trkpt>
      <trkpt lat="42.72278" lon="0.32643">
        <ele>1967.48</ele>
        <time>2015-09-06T12:38:54Z</time>
      </trkpt>
      <trkpt lat="42.72259" lon="0.32617">
        <ele>1962.19</ele>
        <time>2015-09-06T12:39:38Z</time>
      </trkpt>
      <trkpt lat="42.7221" lon="0.32464">
        <ele>1912.68</ele>
        <time>2015-09-06T12:47:00Z</time>
      </trkpt>
      <trkpt lat="42.72194" lon="0.3245">
        <ele>1906.91</ele>
        <time>2015-09-06T12:47:35Z</time>
      </trkpt>
      <trkpt lat="42.72182" lon="0.32445">
        <ele>1905.47</ele>
        <time>2015-09-06T12:48:04Z</time>
      </trkpt>
      <trkpt lat="42.72177" lon="0.32441">
        <ele>1904.99</ele>
        <time>2015-09-06T12:48:22Z</time>
      </trkpt>
      <trkpt lat="42.7217" lon="0.32437">
        <ele>1904.51</ele>
        <time>2015-09-06T12:48:33Z</time>
      </trkpt>
      <trkpt lat="42.72166" lon="0.32423">
        <ele>1902.11</ele>
        <time>2015-09-06T12:48:54Z</time>
      </trkpt>
      <trkpt lat="42.7216" lon="0.32411">
        <ele>1897.78</ele>
        <time>2015-09-06T12:49:10Z</time>
      </trkpt>
      <trkpt lat="42.72158" lon="0.32396">
        <ele>1895.38</ele>
        <time>2015-09-06T12:49:24Z</time>
      </trkpt>
      <trkpt lat="42.7215" lon="0.32383">
        <ele>1891.53</ele>
        <time>2015-09-06T12:49:46Z</time>
      </trkpt>
      <trkpt lat="42.72142" lon="0.32374">
        <ele>1887.69</ele>
        <time>2015-09-06T12:50:05Z</time>
      </trkpt>
      <trkpt lat="42.72137" lon="0.32365">
        <ele>1887.69</ele>
        <time>2015-09-06T12:50:24Z</time>
      </trkpt>
      <trkpt lat="42.72139" lon="0.32352">
        <ele>1889.13</ele>
        <time>2015-09-06T12:50:37Z</time>
      </trkpt>
      <trkpt lat="42.7214" lon="0.32338">
        <ele>1889.61</ele>
        <time>2015-09-06T12:50:54Z</time>
      </trkpt>
      <trkpt lat="42.72146" lon="0.32324">
        <ele>1889.61</ele>
        <time>2015-09-06T12:51:08Z</time>
      </trkpt>
      <trkpt lat="42.72164" lon="0.32321">
        <ele>1890.57</ele>
        <time>2015-09-06T12:51:40Z</time>
      </trkpt>
      <trkpt lat="42.72175" lon="0.32318">
        <ele>1890.09</ele>
        <time>2015-09-06T12:53:19Z</time>
      </trkpt>
      <trkpt lat="42.7219" lon="0.32317">
        <ele>1891.05</ele>
        <time>2015-09-06T12:53:38Z</time>
      </trkpt>
      <trkpt lat="42.72204" lon="0.3231">
        <ele>1892.01</ele>
        <time>2015-09-06T12:53:52Z</time>
      </trkpt>
      <trkpt lat="42.72224" lon="0.32299">
        <ele>1892.49</ele>
        <time>2015-09-06T12:54:10Z</time>
      </trkpt>
      <trkpt lat="42.7225" lon="0.32294">
        <ele>1893.93</ele>
        <time>2015-09-06T12:54:52Z</time>
      </trkpt>
      <trkpt lat="42.72621" lon="0.32245">
        <ele>1853.56</ele>
        <time>2015-09-06T13:04:06Z</time>
      </trkpt>
      <trkpt lat="42.72762" lon="0.32037">
        <ele>1783.86</ele>
        <time>2015-09-06T13:12:05Z</time>
      </trkpt>
      <trkpt lat="42.72972" lon="0.32029">
        <ele>1664.66</ele>
        <time>2015-09-06T13:24:31Z</time>
      </trkpt>
      <trkpt lat="42.73001" lon="0.31988">
        <ele>1644.95</ele>
        <time>2015-09-06T13:27:47Z</time>
      </trkpt>
      <trkpt lat="42.73" lon="0.32025">
        <ele>1639.67</ele>
        <time>2015-09-06T13:28:23Z</time>
      </trkpt>
      <trkpt lat="42.72994" lon="0.3205">
        <ele>1636.3</ele>
        <time>2015-09-06T13:28:46Z</time>
      </trkpt>
      <trkpt lat="42.7299" lon="0.32074">
        <ele>1633.42</ele>
        <time>2015-09-06T13:29:03Z</time>
      </trkpt>
      <trkpt lat="42.72987" lon="0.32103">
        <ele>1629.57</ele>
        <time>2015-09-06T13:29:26Z</time>
      </trkpt>
      <trkpt lat="42.72982" lon="0.32122">
        <ele>1627.65</ele>
        <time>2015-09-06T13:29:38Z</time>
      </trkpt>
      <trkpt lat="42.72975" lon="0.32139">
        <ele>1625.73</ele>
        <time>2015-09-06T13:29:52Z</time>
      </trkpt>
      <trkpt lat="42.72971" lon="0.32159">
        <ele>1622.36</ele>
        <time>2015-09-06T13:30:08Z</time>
      </trkpt>
      <trkpt lat="42.72973" lon="0.32233">
        <ele>1612.27</ele>
        <time>2015-09-06T13:31:11Z</time>
      </trkpt>
      <trkpt lat="42.7299" lon="0.3221">
        <ele>1606.98</ele>
        <time>2015-09-06T13:34:16Z</time>
      </trkpt>
      <trkpt lat="42.73002" lon="0.32199">
        <ele>1605.06</ele>
        <time>2015-09-06T13:34:35Z</time>
      </trkpt>
      <trkpt lat="42.73013" lon="0.32195">
        <ele>1603.62</ele>
        <time>2015-09-06T13:34:47Z</time>
      </trkpt>
      <trkpt lat="42.73025" lon="0.32193">
        <ele>1601.21</ele>
        <time>2015-09-06T13:35:01Z</time>
      </trkpt>
      <trkpt lat="42.73058" lon="0.32172">
        <ele>1595.93</ele>
        <time>2015-09-06T13:35:44Z</time>
      </trkpt>
      <trkpt lat="42.73071" lon="0.32164">
        <ele>1593.52</ele>
        <time>2015-09-06T13:35:58Z</time>
      </trkpt>
      <trkpt lat="42.7308" lon="0.32156">
        <ele>1591.6</ele>
        <time>2015-09-06T13:36:13Z</time>
      </trkpt>
      <trkpt lat="42.73088" lon="0.32134">
        <ele>1589.2</ele>
        <time>2015-09-06T13:36:34Z</time>
      </trkpt>
      <trkpt lat="42.731" lon="0.32115">
        <ele>1585.83</ele>
        <time>2015-09-06T13:36:53Z</time>
      </trkpt>
      <trkpt lat="42.73111" lon="0.32085">
        <ele>1582.95</ele>
        <time>2015-09-06T13:37:10Z</time>
      </trkpt>
      <trkpt lat="42.73124" lon="0.3203">
        <ele>1579.1</ele>
        <time>2015-09-06T13:37:47Z</time>
      </trkpt>
      <trkpt lat="42.73132" lon="0.32004">
        <ele>1575.74</ele>
        <time>2015-09-06T13:38:06Z</time>
      </trkpt>
      <trkpt lat="42.73135" lon="0.3198">
        <ele>1573.82</ele>
        <time>2015-09-06T13:38:23Z</time>
      </trkpt>
      <trkpt lat="42.73137" lon="0.3196">
        <ele>1572.37</ele>
        <time>2015-09-06T13:38:36Z</time>
      </trkpt>
      <trkpt lat="42.73133" lon="0.3196">
        <ele>1569.49</ele>
        <time>2015-09-06T13:38:58Z</time>
      </trkpt>
      <trkpt lat="42.73135" lon="0.31971">
        <ele>1567.09</ele>
        <time>2015-09-06T13:39:19Z</time>
      </trkpt>
      <trkpt lat="42.73139" lon="0.32003">
        <ele>1562.28</ele>
        <time>2015-09-06T13:39:51Z</time>
      </trkpt>
      <trkpt lat="42.73153" lon="0.32091">
        <ele>1550.26</ele>
        <time>2015-09-06T13:41:35Z</time>
      </trkpt>
      <trkpt lat="42.73153" lon="0.32122">
        <ele>1547.86</ele>
        <time>2015-09-06T13:42:01Z</time>
      </trkpt>
      <trkpt lat="42.73142" lon="0.32235">
        <ele>1536.8</ele>
        <time>2015-09-06T13:43:46Z</time>
      </trkpt>
      <trkpt lat="42.73149" lon="0.32252">
        <ele>1534.88</ele>
        <time>2015-09-06T13:44:13Z</time>
      </trkpt>
      <trkpt lat="42.73161" lon="0.32246">
        <ele>1533.92</ele>
        <time>2015-09-06T13:44:32Z</time>
      </trkpt>
      <trkpt lat="42.73174" lon="0.32245">
        <ele>1533.44</ele>
        <time>2015-09-06T13:44:47Z</time>
      </trkpt>
      <trkpt lat="42.73185" lon="0.32243">
        <ele>1532.48</ele>
        <time>2015-09-06T13:45:00Z</time>
      </trkpt>
      <trkpt lat="42.73195" lon="0.32242">
        <ele>1532</ele>
        <time>2015-09-06T13:45:13Z</time>
      </trkpt>
      <trkpt lat="42.73192" lon="0.32227">
        <ele>1531.52</ele>
        <time>2015-09-06T13:45:25Z</time>
      </trkpt>
      <trkpt lat="42.73195" lon="0.32208">
        <ele>1530.08</ele>
        <time>2015-09-06T13:45:43Z</time>
      </trkpt>
      <trkpt lat="42.73204" lon="0.32195">
        <ele>1529.11</ele>
        <time>2015-09-06T13:46:00Z</time>
      </trkpt>
      <trkpt lat="42.73225" lon="0.32178">
        <ele>1526.71</ele>
        <time>2015-09-06T13:46:23Z</time>
      </trkpt>
      <trkpt lat="42.73257" lon="0.32166">
        <ele>1524.79</ele>
        <time>2015-09-06T13:46:49Z</time>
      </trkpt>
      <trkpt lat="42.73272" lon="0.32122">
        <ele>1520.46</ele>
        <time>2015-09-06T13:47:27Z</time>
      </trkpt>
      <trkpt lat="42.73268" lon="0.32095">
        <ele>1519.02</ele>
        <time>2015-09-06T13:47:46Z</time>
      </trkpt>
      <trkpt lat="42.73271" lon="0.32077">
        <ele>1516.14</ele>
        <time>2015-09-06T13:48:03Z</time>
      </trkpt>
      <trkpt lat="42.73276" lon="0.32064">
        <ele>1515.66</ele>
        <time>2015-09-06T13:48:17Z</time>
      </trkpt>
      <trkpt lat="42.73284" lon="0.32052">
        <ele>1515.18</ele>
        <time>2015-09-06T13:48:32Z</time>
      </trkpt>
      <trkpt lat="42.73285" lon="0.32031">
        <ele>1513.73</ele>
        <time>2015-09-06T13:48:47Z</time>
      </trkpt>
      <trkpt lat="42.73295" lon="0.32004">
        <ele>1514.21</ele>
        <time>2015-09-06T13:49:01Z</time>
      </trkpt>
      <trkpt lat="42.73301" lon="0.3199">
        <ele>1513.73</ele>
        <time>2015-09-06T13:49:10Z</time>
      </trkpt>
      <trkpt lat="42.73304" lon="0.31977">
        <ele>1513.73</ele>
        <time>2015-09-06T13:49:19Z</time>
      </trkpt>
      <trkpt lat="42.73317" lon="0.31959">
        <ele>1512.77</ele>
        <time>2015-09-06T13:49:39Z</time>
      </trkpt>
      <trkpt lat="42.73327" lon="0.31939">
        <ele>1512.77</ele>
        <time>2015-09-06T13:49:57Z</time>
      </trkpt>
      <trkpt lat="42.73336" lon="0.31917">
        <ele>1512.77</ele>
        <time>2015-09-06T13:50:10Z</time>
      </trkpt>
      <trkpt lat="42.7335" lon="0.31901">
        <ele>1513.25</ele>
        <time>2015-09-06T13:50:28Z</time>
      </trkpt>
      <trkpt lat="42.73361" lon="0.31883">
        <ele>1512.77</ele>
        <time>2015-09-06T13:50:42Z</time>
      </trkpt>
      <trkpt lat="42.7337" lon="0.31863">
        <ele>1512.29</ele>
        <time>2015-09-06T13:51:01Z</time>
      </trkpt>
      <trkpt lat="42.73377" lon="0.31842">
        <ele>1512.77</ele>
        <time>2015-09-06T13:51:17Z</time>
      </trkpt>
      <trkpt lat="42.73376" lon="0.31824">
        <ele>1513.25</ele>
        <time>2015-09-06T13:51:33Z</time>
      </trkpt>
      <trkpt lat="42.7338" lon="0.31797">
        <ele>1514.21</ele>
        <time>2015-09-06T13:51:47Z</time>
      </trkpt>
      <trkpt lat="42.73396" lon="0.31742">
        <ele>1514.21</ele>
        <time>2015-09-06T13:52:30Z</time>
      </trkpt>
      <trkpt lat="42.73388" lon="0.3169">
        <ele>1514.21</ele>
        <time>2015-09-06T13:52:52Z</time>
      </trkpt>
      <trkpt lat="42.7339" lon="0.31671">
        <ele>1514.21</ele>
        <time>2015-09-06T13:53:01Z</time>
      </trkpt>
      <trkpt lat="42.73398" lon="0.3166">
        <ele>1514.21</ele>
        <time>2015-09-06T13:53:11Z</time>
      </trkpt>
      <trkpt lat="42.73404" lon="0.31647">
        <ele>1513.73</ele>
        <time>2015-09-06T13:53:23Z</time>
      </trkpt>
      <trkpt lat="42.73411" lon="0.31638">
        <ele>1513.25</ele>
        <time>2015-09-06T13:53:35Z</time>
      </trkpt>
      <trkpt lat="42.73422" lon="0.31627">
        <ele>1512.29</ele>
        <time>2015-09-06T13:53:53Z</time>
      </trkpt>
      <trkpt lat="42.73431" lon="0.31596">
        <ele>1512.29</ele>
        <time>2015-09-06T13:54:10Z</time>
      </trkpt>
      <trkpt lat="42.73434" lon="0.31567">
        <ele>1512.29</ele>
        <time>2015-09-06T13:54:25Z</time>
      </trkpt>
      <trkpt lat="42.73451" lon="0.31507">
        <ele>1511.81</ele>
        <time>2015-09-06T13:55:16Z</time>
      </trkpt>
      <trkpt lat="42.73459" lon="0.31487">
        <ele>1511.81</ele>
        <time>2015-09-06T13:55:28Z</time>
      </trkpt>
      <trkpt lat="42.73463" lon="0.31472">
        <ele>1511.33</ele>
        <time>2015-09-06T13:55:41Z</time>
      </trkpt>
      <trkpt lat="42.73475" lon="0.31434">
        <ele>1511.81</ele>
        <time>2015-09-06T13:55:58Z</time>
      </trkpt>
      <trkpt lat="42.73487" lon="0.31424">
        <ele>1512.29</ele>
        <time>2015-09-06T13:56:06Z</time>
      </trkpt>
      <trkpt lat="42.7349" lon="0.31412">
        <ele>1511.81</ele>
        <time>2015-09-06T13:56:15Z</time>
      </trkpt>
      <trkpt lat="42.73497" lon="0.31404">
        <ele>1511.33</ele>
        <time>2015-09-06T13:56:25Z</time>
      </trkpt>
      <trkpt lat="42.73493" lon="0.31379">
        <ele>1510.37</ele>
        <time>2015-09-06T13:56:54Z</time>
      </trkpt>
      <trkpt lat="42.73504" lon="0.31326">
        <ele>1509.41</ele>
        <time>2015-09-06T13:57:36Z</time>
      </trkpt>
      <trkpt lat="42.73505" lon="0.31297">
        <ele>1507.97</ele>
        <time>2015-09-06T13:57:58Z</time>
      </trkpt>
      <trkpt lat="42.73505" lon="0.31281">
        <ele>1506.52</ele>
        <time>2015-09-06T13:58:08Z</time>
      </trkpt>
      <trkpt lat="42.73505" lon="0.31262">
        <ele>1506.04</ele>
        <time>2015-09-06T13:58:22Z</time>
      </trkpt>
      <trkpt lat="42.73502" lon="0.31248">
        <ele>1505.56</ele>
        <time>2015-09-06T13:58:32Z</time>
      </trkpt>
      <trkpt lat="42.73506" lon="0.3121">
        <ele>1503.64</ele>
        <time>2015-09-06T13:58:53Z</time>
      </trkpt>
      <trkpt lat="42.73503" lon="0.31192">
        <ele>1503.16</ele>
        <time>2015-09-06T13:59:05Z</time>
      </trkpt>
      <trkpt lat="42.7351" lon="0.31145">
        <ele>1498.35</ele>
        <time>2015-09-06T13:59:48Z</time>
      </trkpt>
      <trkpt lat="42.7353" lon="0.31126">
        <ele>1496.43</ele>
        <time>2015-09-06T14:00:11Z</time>
      </trkpt>
      <trkpt lat="42.73536" lon="0.31087">
        <ele>1494.03</ele>
        <time>2015-09-06T14:00:51Z</time>
      </trkpt>
      <trkpt lat="42.73645" lon="0.30966">
        <ele>1481.53</ele>
        <time>2015-09-06T14:03:43Z</time>
      </trkpt>
      <trkpt lat="42.73708" lon="0.30943">
        <ele>1474.32</ele>
        <time>2015-09-06T14:04:47Z</time>
      </trkpt>
      <trkpt lat="42.73753" lon="0.30946">
        <ele>1469.51</ele>
        <time>2015-09-06T14:05:37Z</time>
      </trkpt>
      <trkpt lat="42.73773" lon="0.30943">
        <ele>1467.11</ele>
        <time>2015-09-06T14:05:53Z</time>
      </trkpt>
      <trkpt lat="42.73788" lon="0.30946">
        <ele>1464.71</ele>
        <time>2015-09-06T14:06:07Z</time>
      </trkpt>
      <trkpt lat="42.73813" lon="0.30957">
        <ele>1463.26</ele>
        <time>2015-09-06T14:06:20Z</time>
      </trkpt>
      <trkpt lat="42.73833" lon="0.30963">
        <ele>1461.82</ele>
        <time>2015-09-06T14:06:33Z</time>
      </trkpt>
      <trkpt lat="42.73867" lon="0.3095">
        <ele>1455.57</ele>
        <time>2015-09-06T14:07:12Z</time>
      </trkpt>
      <trkpt lat="42.73882" lon="0.30946">
        <ele>1453.17</ele>
        <time>2015-09-06T14:07:26Z</time>
      </trkpt>
      <trkpt lat="42.73895" lon="0.3094">
        <ele>1452.21</ele>
        <time>2015-09-06T14:07:38Z</time>
      </trkpt>
      <trkpt lat="42.73909" lon="0.30932">
        <ele>1450.77</ele>
        <time>2015-09-06T14:07:51Z</time>
      </trkpt>
      <trkpt lat="42.73955" lon="0.30905">
        <ele>1447.4</ele>
        <time>2015-09-06T14:08:40Z</time>
      </trkpt>
      <trkpt lat="42.73992" lon="0.30862">
        <ele>1444.04</ele>
        <time>2015-09-06T14:10:06Z</time>
      </trkpt>
      <trkpt lat="42.73981" lon="0.30852">
        <ele>1443.08</ele>
        <time>2015-09-06T14:10:34Z</time>
      </trkpt>
      <trkpt lat="42.73973" lon="0.30843">
        <ele>1442.6</ele>
        <time>2015-09-06T14:10:48Z</time>
      </trkpt>
      <trkpt lat="42.73965" lon="0.30835">
        <ele>1442.11</ele>
        <time>2015-09-06T14:11:03Z</time>
      </trkpt>
    </trkseg>
  </trk>
</gpx>